Time;durP1;ratioP1;P1;durP2;ratioP2;P2;SDS_P1;SDS_P2;PMS_P1;PMS_P2;Temp;Humidity;BMP_temperature;BMP_pressure;BME280_temperature;BME280_humidity;BME280_pressure;Samples;Min_cycle;Max_cycle;Signal;HPM_P1;HPM_P2
2021/08/16 00:01:44;;;;;;;17.07;13.37;;;;;;;20.93;81.60;98352.00;125003;1093;64425;-93
2021/08/16 00:04:11;;;;;;;20.57;18.57;;;;;;;20.88;81.63;98343.59;125024;1094;64389;-93
2021/08/16 00:06:39;;;;;;;18.10;15.17;;;;;;;20.92;82.22;98339.50;125047;1093;64353;-93
2021/08/16 00:09:09;;;;;;;15.05;13.65;;;;;;;20.96;81.92;98333.53;125093;1093;64278;-94
2021/08/16 00:11:39;;;;;;;14.70;13.30;;;;;;;20.98;82.05;98339.58;125079;1093;64165;-93
2021/08/16 00:14:06;;;;;;;16.73;15.13;;;;;;;21.01;82.10;98339.23;125084;1093;64197;-93
2021/08/16 00:16:34;;;;;;;14.60;13.20;;;;;;;21.03;81.96;98339.88;125022;1093;64383;-94
2021/08/16 00:19:02;;;;;;;14.80;12.93;;;;;;;21.03;81.78;98333.62;124962;1093;64287;-95
2021/08/16 00:21:29;;;;;;;14.27;12.87;;;;;;;21.03;81.85;98337.16;125123;1093;64351;-94
2021/08/16 00:23:57;;;;;;;14.93;13.47;;;;;;;21.06;82.34;98341.37;125021;1094;64376;-95
2021/08/16 00:26:25;;;;;;;13.65;12.35;;;;;;;21.09;82.10;98338.31;125014;1093;64434;-89
2021/08/16 00:28:52;;;;;;;12.93;11.63;;;;;;;21.15;81.89;98342.98;125158;1093;64294;-93
2021/08/16 00:31:19;;;;;;;13.50;11.73;;;;;;;21.22;82.09;98340.34;124953;1093;64294;-93
2021/08/16 00:33:46;;;;;;;15.97;12.57;;;;;;;21.27;82.18;98340.63;124901;1092;64331;-92
2021/08/16 00:36:14;;;;;;;15.53;12.30;;;;;;;21.30;82.04;98329.44;125005;1093;64331;-93
2021/08/16 00:38:42;;;;;;;13.57;12.30;;;;;;;21.30;82.09;98326.73;124940;1093;64213;-91
2021/08/16 00:41:10;;;;;;;13.30;12.00;;;;;;;21.26;82.30;98320.82;125049;1093;64338;-93
2021/08/16 00:43:38;;;;;;;13.93;12.53;;;;;;;21.24;82.38;98303.06;124916;1093;64277;-91
2021/08/16 00:46:06;;;;;;;14.73;13.23;;;;;;;21.20;82.39;98302.61;125023;1093;64251;-93
2021/08/16 00:48:33;;;;;;;14.87;13.27;;;;;;;21.16;82.49;98300.45;124943;1093;64278;-91
2021/08/16 00:51:02;;;;;;;13.90;12.50;;;;;;;21.11;83.03;98301.02;124874;1094;64409;-93
2021/08/16 00:53:30;;;;;;;15.07;13.53;;;;;;;21.10;82.75;98296.63;124980;1093;64271;-89
2021/08/16 00:55:58;;;;;;;13.40;12.10;;;;;;;21.11;82.75;98305.59;125075;1093;64249;-90
2021/08/16 00:58:26;;;;;;;14.43;12.93;;;;;;;21.11;82.72;98303.72;125033;1093;64282;-90
2021/08/16 01:00:58;;;;;;;13.50;12.10;;;;;;;21.11;82.64;98298.30;125030;1092;64303;-90
2021/08/16 01:03:33;;;;;;;14.57;13.07;;;;;;;21.10;82.47;98301.22;125002;1093;64347;-91
2021/08/16 01:06:00;;;;;;;14.30;12.90;;;;;;;21.08;82.48;98316.81;124980;1093;64331;-93
2021/08/16 01:08:28;;;;;;;14.80;11.37;;;;;;;21.08;82.83;98328.48;125078;1093;64380;-92
2021/08/16 01:10:55;;;;;;;12.83;11.67;;;;;;;21.13;82.76;98336.89;125117;1093;64363;-95
2021/08/16 01:13:23;;;;;;;12.40;11.13;;;;;;;21.18;82.85;98325.51;125055;1093;64313;-94
2021/08/16 01:16:02;;;;;;;17.50;13.80;;;;;;;21.18;82.41;98301.95;125082;1093;64255;-94
2021/08/16 01:18:32;;;;;;;13.33;12.10;;;;;;;21.18;82.56;98301.12;125002;1094;64290;-89
2021/08/16 01:21:02;;;;;;;14.50;12.37;;;;;;;21.16;82.28;98324.84;125000;1093;64271;-87
2021/08/16 17:50:07;;;;;;;22.20;14.17;;;;;;;24.97;62.26;98129.95;125463;1093;64351;-92
2021/08/16 17:52:34;;;;;;;24.97;17.90;;;;;;;24.95;62.50;98132.05;125437;1093;64423;-91
2021/08/16 17:55:02;;;;;;;14.77;11.37;;;;;;;24.94;62.52;98137.73;125422;1093;64383;-91
2021/08/16 17:57:29;;;;;;;13.45;7.90;;;;;;;24.92;62.62;98137.11;125306;1093;64271;-92
2021/08/16 17:59:56;;;;;;;10.80;8.00;;;;;;;24.89;62.84;98138.38;125133;1093;64364;-92
2021/08/16 18:02:23;;;;;;;8.50;7.47;;;;;;;24.85;63.06;98141.74;125218;1093;64268;-91
2021/08/16 18:04:50;;;;;;;8.03;6.90;;;;;;;24.81;63.14;98137.79;125090;1093;64248;-89
2021/08/16 18:07:22;;;;;;;10.07;8.17;;;;;;;24.75;63.39;98136.77;125075;1093;64211;-91
2021/08/16 18:09:50;;;;;;;8.20;7.20;;;;;;;24.70;63.66;98142.85;126893;1093;64259;-92
2021/08/16 18:12:20;;;;;;;8.80;6.80;;;;;;;24.61;64.12;98146.84;127387;1092;64759;-92
2021/08/16 18:14:48;;;;;;;;;;;;;;;24.54;64.77;98143.32;126395;1093;64271;-91
2021/08/16 18:17:15;;;;;;;10.07;7.30;;;;;;;24.45;65.01;98156.31;125917;1093;64217;-91
2021/08/16 18:19:44;;;;;;;8.37;6.00;;;;;;;24.41;65.61;98173.25;126089;1093;64271;-91
2021/08/16 18:22:13;;;;;;;10.50;7.20;;;;;;;24.29;66.08;98175.79;126090;1093;64242;-92
2021/08/16 18:24:45;;;;;;;10.68;7.10;;;;;;;24.20;66.81;98177.06;126590;1093;64319;-92
2021/08/16 18:27:16;;;;;;;11.70;6.83;;;;;;;24.07;67.40;98186.90;126277;1093;64159;-92
2021/08/16 18:29:44;;;;;;;8.50;6.50;;;;;;;23.97;68.11;98194.64;125489;1093;64232;-92
2021/08/16 18:32:11;;;;;;;10.25;7.00;;;;;;;23.88;68.33;98193.15;125205;1093;64277;-91
2021/08/16 18:34:38;;;;;;;10.93;7.27;;;;;;;23.80;69.03;98196.07;125017;1093;64265;-90
2021/08/16 18:37:10;;;;;;;10.97;6.60;;;;;;;23.74;69.44;98202.34;126521;1093;64360;-89
2021/08/16 18:39:39;;;;;;;8.83;7.00;;;;;;;23.66;69.73;98203.34;126840;1093;64415;-89
2021/08/16 18:42:06;;;;;;;8.80;7.63;;;;;;;23.58;70.86;98215.25;125457;1093;64241;-90
2021/08/16 18:44:34;;;;;;;9.43;6.93;;;;;;;23.49;71.01;98221.11;125167;1093;64245;-90
2021/08/16 18:47:01;;;;;;;10.25;7.10;;;;;;;23.40;71.56;98217.70;126978;1092;63020;-91
2021/08/16 18:49:29;;;;;;;7.93;7.13;;;;;;;23.33;72.46;98223.14;127494;1092;64271;-91
2021/08/16 18:51:57;;;;;;;9.80;6.73;;;;;;;23.21;72.63;98222.86;127349;1093;62903;-91
2021/08/16 18:54:26;;;;;;;12.10;7.20;;;;;;;23.11;72.89;98229.72;126665;1093;64214;-91
2021/08/16 18:56:54;;;;;;;8.40;6.25;;;;;;;23.02;73.61;98223.63;126219;1093;64271;-88
2021/08/16 18:59:22;;;;;;;9.60;6.40;;;;;;;22.92;74.09;98217.68;125266;1093;64217;-90
2021/08/16 19:01:49;;;;;;;29.50;18.67;;;;;;;22.84;74.54;98215.96;125256;1093;64382;-91
2021/08/16 19:04:17;;;;;;;18.33;12.70;;;;;;;22.79;75.28;98218.44;125597;1091;64292;-85
2021/08/16 19:06:45;;;;;;;18.20;14.73;;;;;;;22.65;75.57;98219.41;126792;1093;64117;-85
2021/08/16 19:09:13;;;;;;;51.73;30.07;;;;;;;22.54;75.87;98209.94;126691;1092;64322;-86
2021/08/16 19:11:41;;;;;;;14.70;11.83;;;;;;;22.46;76.12;98215.49;126942;1093;62883;-86
2021/08/16 19:14:13;;;;;;;9.77;7.00;;;;;;;22.38;76.38;98218.36;126441;1093;64335;-86
2021/08/16 19:16:40;;;;;;;8.23;7.17;;;;;;;22.31;76.37;98223.75;125962;1093;64360;-86
2021/08/16 19:19:07;;;;;;;15.17;12.00;;;;;;;22.26;76.78;98215.36;125150;1092;64276;-86
2021/08/16 19:21:34;;;;;;;18.03;13.77;;;;;;;22.23;77.09;98219.30;125155;1093;64242;-85
2021/08/16 19:24:02;;;;;;;27.17;16.70;;;;;;;22.24;77.47;98211.99;125172;1092;64267;-85
2021/08/16 19:26:30;;;;;;;26.17;16.37;;;;;;;22.22;77.69;98209.50;125163;1093;64325;-86
2021/08/16 19:28:57;;;;;;;13.55;10.20;;;;;;;22.21;77.58;98210.52;125098;1093;64353;-86
2021/08/16 19:31:27;;;;;;;9.43;6.13;;;;;;;22.22;77.87;98208.63;125166;1093;64265;-87
2021/08/16 19:33:54;;;;;;;7.77;6.87;;;;;;;22.22;78.22;98208.63;125140;1093;64242;-87
2021/08/16 19:36:22;;;;;;;13.17;9.50;;;;;;;22.10;78.54;98200.16;125078;1093;64360;-87
2021/08/16 19:38:50;;;;;;;10.17;6.83;;;;;;;21.98;78.62;98204.43;125190;1092;64395;-87
2021/08/16 19:41:17;;;;;;;10.27;7.57;;;;;;;21.98;79.27;98196.29;125220;1093;64283;-86
2021/08/16 19:43:44;;;;;;;8.70;6.83;;;;;;;22.02;79.22;98184.86;125161;1093;64217;-85
2021/08/16 19:46:12;;;;;;;9.17;6.83;;;;;;;22.07;79.22;98184.28;125173;1092;64210;-85
2021/08/16 19:48:39;;;;;;;9.13;5.93;;;;;;;22.13;79.40;98189.75;125154;1093;64300;-85
2021/08/16 19:51:07;;;;;;;7.00;6.30;;;;;;;22.19;79.61;98182.72;125253;1093;64306;-85
2021/08/16 19:53:37;;;;;;;9.45;7.50;;;;;;;22.19;79.44;98177.30;125228;1093;64267;-85
2021/08/16 19:56:14;;;;;;;8.60;7.20;;;;;;;22.14;79.44;98166.16;125187;1092;64271;-85
2021/08/16 19:58:42;;;;;;;9.17;7.40;;;;;;;22.17;79.65;98146.79;125166;1092;64325;-85
2021/08/16 20:01:10;;;;;;;7.73;6.87;;;;;;;22.09;79.36;98142.34;125197;1093;64188;-85
2021/08/16 20:03:38;;;;;;;9.33;7.30;;;;;;;22.06;79.69;98136.45;125152;1093;64239;-90
2021/08/16 20:06:05;;;;;;;11.27;8.20;;;;;;;22.09;80.17;98133.34;125149;1093;64295;-86
2021/08/16 20:08:33;;;;;;;8.03;7.23;;;;;;;22.13;80.03;98121.06;125171;1093;64188;-86
2021/08/16 20:11:00;;;;;;;8.47;7.13;;;;;;;22.17;80.09;98122.36;125220;1093;64267;-85
2021/08/16 20:13:28;;;;;;;9.77;7.00;;;;;;;22.17;80.45;98116.94;125150;1093;64181;-86
2021/08/16 20:15:57;;;;;;;7.83;7.03;;;;;;;22.08;80.26;98118.11;125151;1092;64431;-86
2021/08/16 20:18:24;;;;;;;;;;;;;;;22.02;80.73;98111.60;125215;1093;64348;-86
2021/08/16 20:20:51;;;;;;;10.10;8.50;;;;;;;21.98;80.77;98107.59;125166;1094;64235;-87
2021/08/16 20:23:19;;;;;;;8.23;7.50;;;;;;;21.95;81.18;98105.28;125166;1091;64306;-85
2021/08/16 20:25:46;;;;;;;8.67;6.60;;;;;;;21.95;81.17;98107.16;125155;1092;64260;-85
2021/08/16 20:28:13;;;;;;;8.30;6.37;;;;;;;21.94;81.37;98124.48;125147;1092;64228;-86
2021/08/16 20:30:41;;;;;;;6.33;5.67;;;;;;;21.89;81.04;98131.33;125177;1093;64353;-86
2021/08/16 20:33:09;;;;;;;7.50;6.45;;;;;;;21.86;81.43;98136.31;125143;1093;64265;-85
2021/08/16 20:35:37;;;;;;;7.13;5.80;;;;;;;21.74;81.50;98140.58;125155;1093;64255;-86
2021/08/16 20:38:05;;;;;;;10.37;8.33;;;;;;;21.62;82.11;98148.41;125193;1093;64657;-86
2021/08/16 20:40:32;;;;;;;13.40;9.17;;;;;;;21.53;82.31;98149.55;125232;1093;64364;-86
2021/08/16 20:43:00;;;;;;;9.95;8.95;;;;;;;21.50;82.73;98164.34;125203;1093;64427;-87
2021/08/16 20:45:28;;;;;;;8.70;7.90;;;;;;;21.48;83.29;98171.81;125158;1093;64245;-85
2021/08/16 20:47:55;;;;;;;10.10;8.20;;;;;;;21.42;83.93;98188.86;125150;1091;64267;-86
2021/08/16 20:50:23;;;;;;;13.13;9.40;;;;;;;21.35;84.28;98199.58;125710;1093;64322;-84
2021/08/16 20:52:51;;;;;;;9.77;8.77;;;;;;;21.28;84.58;98178.88;125221;1093;64444;-85
2021/08/16 20:55:19;;;;;;;10.17;9.27;;;;;;;21.21;85.42;98181.50;125149;1093;64342;-86
2021/08/16 20:57:46;;;;;;;11.83;8.67;;;;;;;21.20;85.51;98174.41;125147;1093;64341;-87
2021/08/16 21:00:14;;;;;;;9.85;8.85;;;;;;;21.29;85.90;98169.71;125133;1093;64286;-86
2021/08/16 21:02:42;;;;;;;10.83;9.67;;;;;;;21.34;86.38;98148.30;125181;1093;64328;-86
2021/08/16 21:05:09;;;;;;;12.43;8.63;;;;;;;21.33;87.28;98144.75;125164;1093;64421;-86
2021/08/16 21:07:36;;;;;;;11.27;9.60;;;;;;;21.30;87.32;98144.27;125243;1093;64306;-85
2021/08/16 21:10:06;;;;;;;12.60;9.30;;;;;;;21.33;87.11;98149.30;125125;1092;64695;-86
2021/08/16 21:12:34;;;;;;;13.05;9.50;;;;;;;21.36;86.70;98157.08;125128;1092;64242;-86
2021/08/16 21:15:01;;;;;;;12.13;8.97;;;;;;;21.37;86.85;98158.75;125228;1093;64252;-86
2021/08/16 21:17:28;;;;;;;10.93;8.27;;;;;;;21.42;87.20;98169.89;125185;1093;64450;-87
2021/08/16 21:19:56;;;;;;;10.27;8.47;;;;;;;21.40;86.86;98186.33;125170;1093;64351;-86
2021/08/16 21:22:23;;;;;;;11.87;9.60;;;;;;;21.38;86.69;98191.13;125158;1093;64191;-86
2021/08/16 21:24:52;;;;;;;17.40;14.43;;;;;;;21.38;86.95;98215.52;125280;1093;64348;-86
2021/08/16 21:27:21;;;;;;;10.93;9.80;;;;;;;21.34;86.88;98222.31;125135;1093;64242;-86
2021/08/16 21:29:48;;;;;;;12.60;8.70;;;;;;;21.29;87.00;98238.30;125138;1093;64244;-85
2021/08/16 21:32:16;;;;;;;9.83;8.50;;;;;;;21.26;86.66;98235.97;125182;1093;64622;-86
2021/08/16 21:34:43;;;;;;;12.10;8.40;;;;;;;21.26;86.96;98222.42;125259;1093;64191;-86
2021/08/16 21:37:10;;;;;;;14.07;8.00;;;;;;;21.25;87.19;98227.01;125279;1093;64280;-87
2021/08/16 21:39:38;;;;;;;9.55;7.25;;;;;;;21.26;86.79;98225.97;125151;1093;64287;-87
2021/08/16 21:42:05;;;;;;;8.47;7.20;;;;;;;21.23;86.88;98222.80;125178;1092;64290;-86
2021/08/16 21:44:32;;;;;;;11.93;7.40;;;;;;;21.22;86.91;98221.97;125161;1093;64287;-87
2021/08/16 21:46:59;;;;;;;10.20;7.17;;;;;;;21.23;86.80;98230.94;125140;1092;64309;-86
2021/08/16 21:49:27;;;;;;;11.50;7.50;;;;;;;21.20;86.86;98237.58;125290;1093;64265;-87
2021/08/16 21:51:56;;;;;;;8.73;6.50;;;;;;;21.12;86.50;98240.39;125176;1093;64188;-87
2021/08/16 21:54:23;;;;;;;8.13;6.17;;;;;;;21.07;87.06;98234.70;124807;1092;64325;-87
2021/08/16 21:56:50;;;;;;;10.40;7.33;;;;;;;20.98;86.63;98228.52;124895;1093;64380;-87
2021/08/16 21:59:17;;;;;;;10.00;6.87;;;;;;;20.90;86.56;98223.20;124863;1092;64241;-87
2021/08/16 22:01:45;;;;;;;10.57;6.87;;;;;;;20.83;86.80;98214.16;124882;1093;64306;-87
2021/08/16 22:04:12;;;;;;;8.43;6.70;;;;;;;20.75;86.81;98200.72;124891;1093;64328;-87
2021/08/16 22:06:39;;;;;;;9.57;6.50;;;;;;;20.67;86.67;98190.83;124850;1093;64269;-87
2021/08/16 22:09:06;;;;;;;8.50;6.35;;;;;;;20.61;87.43;98189.67;124903;1093;64347;-87
2021/08/16 22:11:34;;;;;;;9.37;6.97;;;;;;;20.53;87.19;98195.16;124874;1093;64380;-87
2021/08/16 22:14:01;;;;;;;11.07;6.50;;;;;;;20.47;87.77;98205.90;124848;1093;64375;-87
2021/08/16 22:16:28;;;;;;;12.65;7.15;;;;;;;20.44;87.81;98198.16;124896;1093;64263;-87
2021/08/16 22:18:56;;;;;;;9.53;6.73;;;;;;;20.42;87.99;98198.33;124863;1093;64376;-87
2021/08/16 22:21:23;;;;;;;12.00;7.23;;;;;;;20.40;87.73;98194.95;124865;1093;64283;-87
2021/08/16 22:23:50;;;;;;;9.47;6.67;;;;;;;20.37;87.94;98203.45;124900;1093;64313;-87
